Time;durP1;ratioP1;P1;durP2;ratioP2;P2;SDS_P1;SDS_P2;PMS_P1;PMS_P2;Temp;Humidity;BMP_temperature;BMP_pressure;BME280_temperature;BME280_humidity;BME280_pressure;Samples;Min_cycle;Max_cycle;Signal;HPM_P1;HPM_P2
2022/05/13 00:02:21;;;;;;;0.00;0.00;;;11.80;99.90;;;;;;4869040;29;20048;-65
2022/05/13 00:04:47;;;;;;;0.00;0.00;;;11.60;99.90;;;;;;4869488;29;20101;-64
2022/05/13 00:07:12;;;;;;;0.00;0.00;;;11.70;99.90;;;;;;4868222;29;20156;-65
2022/05/13 00:09:56;;;;;;;0.00;0.00;;;12.10;99.90;;;;;;4869146;29;20053;-64
2022/05/13 00:12:29;;;;;;;0.00;0.00;;;11.70;99.90;;;;;;4868520;29;20053;-63
2022/05/13 00:14:55;;;;;;;0.00;0.00;;;11.70;99.90;;;;;;4868643;29;20051;-64
2022/05/13 00:17:22;;;;;;;0.00;0.00;;;11.90;99.90;;;;;;4868948;29;20741;-64
2022/05/13 00:19:48;;;;;;;0.00;0.00;;;11.80;99.90;;;;;;4852322;29;20037;-65
2022/05/13 00:22:14;;;;;;;0.00;0.00;;;11.80;99.90;;;;;;4851572;29;20714;-64
2022/05/13 00:24:40;;;;;;;0.13;0.13;;;11.90;99.90;;;;;;4868940;29;20041;-63
2022/05/13 00:27:07;;;;;;;0.00;0.00;;;11.80;99.90;;;;;;4868916;29;20044;-64
2022/05/13 00:29:33;;;;;;;0.00;0.00;;;11.80;99.90;;;;;;4868246;29;20924;-64
2022/05/13 00:31:59;;;;;;;0.00;0.00;;;11.90;99.90;;;;;;4868851;29;20467;-64
2022/05/13 00:34:25;;;;;;;0.00;0.00;;;12.10;99.90;;;;;;4868597;29;20045;-64
2022/05/13 00:36:51;;;;;;;0.43;0.10;;;12.20;99.90;;;;;;4868291;29;20049;-64
2022/05/13 00:39:19;;;;;;;0.00;0.00;;;11.80;99.90;;;;;;4868200;29;20045;-65
2022/05/13 00:41:48;;;;;;;0.00;0.00;;;11.90;99.90;;;;;;4869328;29;20703;-65
2022/05/13 00:44:14;;;;;;;0.00;0.00;;;11.90;99.90;;;;;;4872882;29;20048;-64
2022/05/13 00:46:40;;;;;;;0.00;0.00;;;12.60;99.90;;;;;;4882185;29;20051;-64
2022/05/13 00:49:09;;;;;;;0.00;0.00;;;11.90;99.90;;;;;;4872381;29;20544;-64
2022/05/13 00:51:47;;;;;;;0.00;0.00;;;11.80;99.90;;;;;;4871760;29;20322;-64
2022/05/13 00:54:14;;;;;;;0.00;0.00;;;11.80;99.90;;;;;;4872220;29;20412;-64
2022/05/13 00:56:47;;;;;;;0.00;0.00;;;11.80;99.90;;;;;;4872519;29;20412;-64
2022/05/13 00:59:19;;;;;;;0.00;0.00;;;11.80;99.90;;;;;;4872680;29;20081;-64
2022/05/13 01:01:45;;;;;;;0.00;0.00;;;11.80;99.90;;;;;;4872861;29;20049;-64
2022/05/13 01:04:13;;;;;;;0.00;0.00;;;11.70;99.90;;;;;;4908292;23;20198;-64
2022/05/13 01:06:44;;;;;;;0.00;0.00;;;12.50;99.90;;;;;;4909200;29;20127;-64
2022/05/13 01:09:10;;;;;;;0.00;0.00;;;11.70;99.90;;;;;;4892314;29;20515;-65
2022/05/13 01:11:38;;;;;;;0.00;0.00;;;11.70;99.90;;;;;;4909517;29;20103;-64
2022/05/13 01:14:14;;;;;;;0.00;0.00;;;11.70;99.90;;;;;;4909890;29;20067;-64
2022/05/13 01:19:24;;;;;;;0.00;0.00;;;11.70;99.90;;;;;;4909610;29;20055;-64
2022/05/13 01:21:50;;;;;;;1.00;0.75;;;11.60;99.90;;;;;;4908660;29;20083;-64
2022/05/13 01:24:20;;;;;;;0.00;0.00;;;11.70;99.90;;;;;;4909362;29;20052;-64
2022/05/13 01:26:46;;;;;;;0.00;0.00;;;11.60;99.90;;;;;;4909857;29;20051;-64
2022/05/13 01:29:11;;;;;;;0.00;0.00;;;11.70;99.90;;;;;;4909593;29;20055;-64
2022/05/13 01:31:39;;;;;;;0.00;0.00;;;11.60;99.90;;;;;;4909533;29;20040;-64
2022/05/13 01:34:10;;;;;;;0.00;0.00;;;12.40;99.90;;;;;;4909386;29;20183;-64
2022/05/13 01:36:39;;;;;;;0.00;0.00;;;11.60;99.90;;;;;;4908093;29;20059;-64
2022/05/13 01:39:05;;;;;;;0.00;0.00;;;11.60;99.90;;;;;;4909544;29;20196;-63
2022/05/13 01:41:33;;;;;;;0.00;0.00;;;11.60;99.90;;;;;;4892196;29;20523;-64
2022/05/13 01:43:58;;;;;;;0.00;0.00;;;11.60;99.90;;;;;;4909001;29;20144;-64
2022/05/13 01:46:25;;;;;;;0.00;0.00;;;11.60;99.90;;;;;;4908674;29;20262;-64
2022/05/13 01:48:51;;;;;;;0.10;0.10;;;11.70;99.90;;;;;;4909176;29;20048;-64
2022/05/13 01:51:18;;;;;;;0.00;0.00;;;11.60;99.90;;;;;;4908522;29;20119;-64
2022/05/13 01:53:44;;;;;;;0.00;0.00;;;11.80;99.90;;;;;;4891210;29;20056;-64
2022/05/13 01:56:10;;;;;;;0.00;0.00;;;11.70;99.90;;;;;;4909012;29;20036;-64
2022/05/13 01:58:36;;;;;;;0.00;0.00;;;11.60;99.90;;;;;;4891686;29;20052;-64
2022/05/13 02:01:04;;;;;;;0.00;0.00;;;11.60;99.90;;;;;;4908440;29;20040;-65
2022/05/13 02:03:45;;;;;;;0.10;0.10;;;11.50;99.90;;;;;;4908411;29;20143;-64
2022/05/13 02:06:21;;;;;;;0.00;0.00;;;11.50;99.90;;;;;;4908357;29;20056;-64
2022/05/13 02:08:47;;;;;;;0.00;0.00;;;11.50;99.90;;;;;;4908892;29;20063;-64
2022/05/13 02:11:13;;;;;;;0.00;0.00;;;11.50;99.90;;;;;;4909030;29;20155;-64
2022/05/13 02:13:39;;;;;;;0.00;0.00;;;11.60;99.90;;;;;;4908670;29;20048;-64
2022/05/13 02:16:05;;;;;;;0.00;0.00;;;11.50;99.90;;;;;;4908369;29;20036;-64
2022/05/13 02:18:31;;;;;;;0.00;0.00;;;11.60;99.90;;;;;;4908594;29;20063;-65
2022/05/13 02:20:57;;;;;;;0.00;0.00;;;11.50;99.90;;;;;;4908271;29;20492;-64
2022/05/13 02:23:23;;;;;;;0.08;0.05;;;11.50;99.90;;;;;;4908153;29;20045;-65
2022/05/13 02:25:50;;;;;;;0.00;0.00;;;11.60;99.90;;;;;;4908396;29;20074;-64
2022/05/13 02:28:16;;;;;;;0.00;0.00;;;11.60;99.90;;;;;;4908571;29;20087;-65
2022/05/13 02:30:42;;;;;;;0.00;0.00;;;11.50;99.90;;;;;;4891865;29;20036;-65
2022/05/13 02:33:08;;;;;;;0.52;0.22;;;11.50;99.90;;;;;;4907987;29;20143;-65
2022/05/13 02:35:34;;;;;;;0.00;0.00;;;11.50;99.90;;;;;;4890549;29;20052;-64
2022/05/13 02:38:00;;;;;;;0.20;0.20;;;11.80;99.90;;;;;;4908410;29;20408;-64
2022/05/13 02:41:11;;;;;;;0.30;0.30;;;11.50;99.90;;;;;;4890488;29;20083;-64
2022/05/13 02:43:12;;;;;;;0.00;0.00;;;11.50;99.90;;;;;;4908428;29;20059;-65
2022/05/13 02:45:39;;;;;;;0.00;0.00;;;11.50;99.90;;;;;;4888412;29;20097;-64
2022/05/13 02:48:05;;;;;;;0.00;0.00;;;11.90;99.90;;;;;;4908332;29;20792;-64
2022/05/13 02:50:31;;;;;;;0.10;0.10;;;11.50;99.90;;;;;;4907551;29;20441;-64
2022/05/13 02:52:58;;;;;;;0.38;0.38;;;11.50;99.90;;;;;;4908254;29;20076;-64
2022/05/13 02:55:23;;;;;;;0.00;0.00;;;11.60;99.90;;;;;;4890795;29;20410;-65
2022/05/13 02:57:49;;;;;;;0.00;0.00;;;12.00;99.90;;;;;;4908148;29;20044;-64
2022/05/13 03:00:15;;;;;;;0.00;0.00;;;11.50;99.90;;;;;;4908159;29;20055;-64
2022/05/13 03:02:43;;;;;;;0.10;0.10;;;11.40;99.90;;;;;;4907442;29;20083;-64
2022/05/13 03:05:10;;;;;;;0.00;0.00;;;11.50;99.90;;;;;;4907545;29;20059;-64
2022/05/13 03:07:35;;;;;;;0.55;0.22;;;12.10;99.90;;;;;;4907036;29;20270;-64
2022/05/13 03:10:01;;;;;;;0.00;0.00;;;11.40;99.90;;;;;;4907784;29;20570;-65
2022/05/13 03:12:27;;;;;;;0.00;0.00;;;11.40;99.90;;;;;;4907145;29;20040;-64
2022/05/13 03:14:52;;;;;;;0.00;0.00;;;11.60;99.90;;;;;;4907585;29;20130;-64
2022/05/13 03:17:18;;;;;;;0.00;0.00;;;11.30;99.90;;;;;;4907739;29;20048;-64
2022/05/13 03:19:43;;;;;;;0.00;0.00;;;11.40;99.90;;;;;;4907450;29;20047;-64
2022/05/13 03:22:09;;;;;;;0.30;0.20;;;11.30;99.90;;;;;;4906846;29;20048;-64
2022/05/13 03:24:35;;;;;;;0.30;0.30;;;11.30;99.90;;;;;;4907339;29;20509;-64
2022/05/13 03:27:01;;;;;;;0.10;0.10;;;11.30;99.90;;;;;;4907427;29;20048;-65
2022/05/13 03:29:27;;;;;;;0.00;0.00;;;11.20;99.90;;;;;;4906773;29;20081;-64
2022/05/13 03:31:54;;;;;;;0.00;0.00;;;11.30;99.90;;;;;;4890403;29;20055;-64
2022/05/13 03:34:21;;;;;;;0.00;0.00;;;11.30;99.90;;;;;;4907386;29;20529;-64
2022/05/13 03:36:49;;;;;;;0.75;0.22;;;11.30;99.90;;;;;;4906286;29;20189;-64
2022/05/13 03:39:15;;;;;;;0.00;0.00;;;11.40;99.90;;;;;;4907747;29;20052;-64
2022/05/13 03:41:41;;;;;;;0.00;0.00;;;11.10;99.90;;;;;;4907905;29;20055;-64
2022/05/13 03:44:07;;;;;;;0.00;0.00;;;11.20;99.90;;;;;;4906701;29;20383;-64
2022/05/13 03:46:32;;;;;;;0.00;0.00;;;11.20;99.90;;;;;;4906325;29;20044;-64
2022/05/13 03:48:58;;;;;;;0.00;0.00;;;11.30;99.90;;;;;;4907139;29;20507;-64
2022/05/13 03:51:23;;;;;;;0.00;0.00;;;11.20;99.90;;;;;;4906255;29;20043;-64
2022/05/13 03:53:49;;;;;;;0.00;0.00;;;11.30;99.90;;;;;;4906668;29;20127;-65
2022/05/13 03:56:15;;;;;;;0.00;0.00;;;11.20;99.90;;;;;;4890517;29;20507;-64
2022/05/13 03:58:42;;;;;;;0.00;0.00;;;11.20;99.90;;;;;;4907174;29;20040;-64
2022/05/13 04:01:07;;;;;;;0.00;0.00;;;11.20;99.90;;;;;;4906552;29;20044;-64
2022/05/13 04:03:33;;;;;;;0.00;0.00;;;11.90;99.90;;;;;;4889563;29;20060;-65
2022/05/13 04:08:59;;;;;;;0.00;0.00;;;11.30;99.90;;;;;;4906863;29;20052;-64
2022/05/13 04:11:29;;;;;;;0.00;0.00;;;11.40;99.90;;;;;;4906833;29;20083;-64
2022/05/13 04:16:40;;;;;;;0.00;0.00;;;11.30;99.90;;;;;;4906054;29;20052;-65
2022/05/13 04:19:05;;;;;;;0.00;0.00;;;11.30;99.90;;;;;;4906473;29;20070;-65
2022/05/13 04:21:34;;;;;;;0.10;0.10;;;11.30;99.90;;;;;;4888056;29;20072;-64
2022/05/13 04:24:04;;;;;;;0.00;0.00;;;11.50;99.90;;;;;;4906502;29;20139;-64
2022/05/13 04:26:30;;;;;;;0.00;0.00;;;11.40;99.90;;;;;;4906380;29;20047;-64
2022/05/13 04:28:56;;;;;;;0.10;0.10;;;11.40;99.90;;;;;;4906147;29;20444;-65
2022/05/13 04:31:25;;;;;;;0.00;0.00;;;11.40;99.90;;;;;;4905985;29;20052;-64
2022/05/13 04:33:52;;;;;;;0.03;0.03;;;12.10;99.90;;;;;;4906320;29;20048;-68
2022/05/13 04:36:19;;;;;;;0.00;0.00;;;11.40;99.90;;;;;;4905562;29;20553;-64
2022/05/13 04:38:45;;;;;;;0.00;0.00;;;11.60;99.90;;;;;;4906968;29;20393;-65
2022/05/13 04:43:56;;;;;;;;;;;11.60;99.90;;;;;;4907053;29;20447;-64
2022/05/13 04:46:21;;;;;;;0.30;0.20;;;11.50;99.90;;;;;;4883249;29;19923;-64
2022/05/13 04:48:47;;;;;;;0.00;0.00;;;11.60;99.90;;;;;;4906541;29;20482;-64
2022/05/13 04:51:13;;;;;;;0.00;0.00;;;12.00;99.90;;;;;;4905906;29;20048;-65
2022/05/13 04:53:39;;;;;;;0.03;0.03;;;11.60;99.90;;;;;;4906439;29;20724;-64
2022/05/13 04:56:07;;;;;;;0.00;0.00;;;11.50;99.90;;;;;;4906674;29;20051;-64
2022/05/13 04:58:33;;;;;;;0.00;0.00;;;11.60;99.90;;;;;;4905651;29;20543;-65
2022/05/13 05:01:01;;;;;;;0.00;0.00;;;11.60;99.90;;;;;;4906386;29;20269;-64
2022/05/13 05:03:28;;;;;;;0.00;0.00;;;11.70;99.90;;;;;;4905808;29;20055;-64
2022/05/13 05:05:55;;;;;;;0.00;0.00;;;12.30;99.90;;;;;;4905835;29;20055;-65
2022/05/13 05:08:21;;;;;;;0.00;0.00;;;11.80;99.90;;;;;;4905833;29;20399;-64
2022/05/13 05:10:47;;;;;;;0.00;0.00;;;11.60;99.90;;;;;;4906187;29;20047;-64
2022/05/13 05:13:24;;;;;;;0.00;0.00;;;11.60;99.90;;;;;;4906589;29;20067;-65
2022/05/13 05:15:50;;;;;;;0.00;0.00;;;11.60;99.90;;;;;;4906505;29;20503;-64
2022/05/13 05:18:17;;;;;;;0.00;0.00;;;11.60;99.90;;;;;;4906279;29;20044;-64
2022/05/13 05:20:44;;;;;;;0.00;0.00;;;11.70;99.90;;;;;;4905951;29;20052;-64
2022/05/13 05:23:14;;;;;;;0.00;0.00;;;12.20;99.90;;;;;;4905523;29;20063;-65
2022/05/13 05:25:41;;;;;;;0.00;0.00;;;11.60;99.90;;;;;;4905792;29;20750;-65
2022/05/13 05:28:07;;;;;;;0.00;0.00;;;11.70;99.90;;;;;;4906259;29;20091;-64
2022/05/13 05:30:33;;;;;;;0.00;0.00;;;11.70;99.90;;;;;;4914350;29;20070;-64
2022/05/13 05:32:58;;;;;;;0.03;0.03;;;11.80;99.90;;;;;;4927724;29;20195;-65
2022/05/13 05:35:24;;;;;;;0.08;0.08;;;11.80;99.90;;;;;;4927397;29;20044;-65
2022/05/13 05:37:50;;;;;;;0.93;0.43;;;11.80;99.90;;;;;;4928568;29;20542;-64
2022/05/13 05:40:16;;;;;;;0.00;0.00;;;12.30;99.90;;;;;;4928195;29;20040;-64
2022/05/13 05:42:42;;;;;;;0.10;0.10;;;11.90;99.90;;;;;;4927910;29;20047;-62
2022/05/13 05:45:11;;;;;;;0.10;0.10;;;12.40;99.90;;;;;;4921842;29;20038;-63
2022/05/13 05:47:37;;;;;;;0.00;0.00;;;12.00;99.90;;;;;;4909177;29;20048;-63
2022/05/13 05:50:06;;;;;;;0.00;0.00;;;11.70;99.90;;;;;;4908428;29;20044;-65
2022/05/13 05:52:31;;;;;;;0.00;0.00;;;12.10;99.90;;;;;;4908227;29;20048;-65
2022/05/13 05:58:03;;;;;;;0.10;0.10;;;12.30;99.90;;;;;;4909489;29;20154;-65
2022/05/13 06:00:30;;;;;;;0.00;0.00;;;12.40;99.90;;;;;;4908864;29;20093;-65
2022/05/13 06:02:57;;;;;;;0.10;0.05;;;12.60;99.90;;;;;;4908817;29;20123;-65
2022/05/13 06:05:24;;;;;;;0.00;0.00;;;12.60;99.90;;;;;;4907679;29;20056;-65
2022/05/13 06:07:50;;;;;;;0.00;0.00;;;12.70;99.90;;;;;;4908550;29;20044;-65
2022/05/13 06:10:17;;;;;;;0.03;0.03;;;12.80;99.90;;;;;;4908521;29;20040;-65
2022/05/13 06:12:43;;;;;;;0.00;0.00;;;12.90;99.90;;;;;;4909267;29;20114;-65
2022/05/13 06:15:11;;;;;;;0.00;0.00;;;13.00;99.90;;;;;;4908489;29;20036;-65
2022/05/13 06:18:08;;;;;;;0.00;0.00;;;13.00;99.90;;;;;;4908329;29;20058;-65
2022/05/13 06:20:33;;;;;;;0.00;0.00;;;13.00;99.90;;;;;;4902593;29;20156;-65
2022/05/13 06:22:59;;;;;;;0.28;0.20;;;13.00;99.90;;;;;;4908441;29;20051;-65
2022/05/13 06:25:26;;;;;;;0.00;0.00;;;13.10;99.90;;;;;;4908346;29;20036;-65
2022/05/13 06:27:53;;;;;;;0.00;0.00;;;13.10;99.90;;;;;;4890940;29;20746;-63
2022/05/13 06:30:25;;;;;;;0.00;0.00;;;13.10;99.90;;;;;;4907699;29;20059;-63
2022/05/13 06:32:52;;;;;;;0.10;0.10;;;13.70;99.90;;;;;;4908143;29;20055;-63
2022/05/13 06:35:17;;;;;;;0.00;0.00;;;13.10;99.90;;;;;;4907551;29;20076;-63
2022/05/13 06:37:43;;;;;;;0.00;0.00;;;13.10;99.90;;;;;;4908781;29;20052;-63
2022/05/13 06:40:09;;;;;;;0.47;0.22;;;13.10;99.90;;;;;;4906967;29;20040;-62
2022/05/13 06:42:35;;;;;;;0.00;0.00;;;13.10;99.90;;;;;;4906963;29;20060;-63
2022/05/13 06:45:01;;;;;;;0.22;0.10;;;13.10;99.90;;;;;;4907551;29;20036;-62
2022/05/13 06:47:26;;;;;;;0.00;0.00;;;13.00;99.90;;;;;;4907358;29;20044;-62
2022/05/13 06:49:52;;;;;;;1.65;0.20;;;13.00;99.90;;;;;;4907054;29;20036;-63
2022/05/13 06:52:18;;;;;;;0.00;0.00;;;13.00;99.90;;;;;;4907975;29;20083;-63
2022/05/13 06:54:44;;;;;;;0.08;0.08;;;13.10;99.90;;;;;;4908422;29;20040;-64
2022/05/13 06:57:10;;;;;;;0.00;0.00;;;13.10;99.90;;;;;;4908014;29;20051;-63
2022/05/13 06:59:37;;;;;;;0.00;0.00;;;13.10;99.90;;;;;;4874829;29;20055;-63
2022/05/13 07:02:04;;;;;;;0.00;0.00;;;13.20;99.90;;;;;;4907513;29;20227;-63
2022/05/13 07:04:30;;;;;;;0.00;0.00;;;13.30;99.90;;;;;;4907282;29;20060;-63
2022/05/13 07:06:55;;;;;;;0.00;0.00;;;13.40;99.90;;;;;;4907151;29;20115;-63
2022/05/13 07:09:21;;;;;;;0.38;0.10;;;13.40;99.90;;;;;;4907270;29;20032;-63
2022/05/13 07:11:46;;;;;;;0.10;0.10;;;13.50;99.90;;;;;;4907140;29;20049;-65
2022/05/13 07:14:14;;;;;;;0.00;0.00;;;13.60;99.90;;;;;;4906247;29;20035;-64
2022/05/13 07:16:39;;;;;;;0.32;0.32;;;13.60;99.90;;;;;;4905847;29;20040;-62
2022/05/13 07:19:06;;;;;;;0.00;0.00;;;13.60;99.90;;;;;;4921053;29;20266;-63
2022/05/13 07:21:31;;;;;;;0.00;0.00;;;13.70;99.90;;;;;;4905990;29;20040;-63
2022/05/13 07:23:57;;;;;;;0.00;0.00;;;13.70;99.90;;;;;;4921275;29;20518;-63
2022/05/13 07:26:22;;;;;;;0.00;0.00;;;13.50;99.90;;;;;;4921680;29;20051;-63
2022/05/13 07:28:48;;;;;;;0.00;0.00;;;13.50;99.90;;;;;;4905916;29;20878;-62
2022/05/13 07:31:14;;;;;;;0.00;0.00;;;13.60;99.90;;;;;;4905845;29;20107;-63
2022/05/13 07:33:40;;;;;;;0.00;0.00;;;13.60;99.90;;;;;;4906836;29;20119;-63
2022/05/13 07:36:05;;;;;;;0.00;0.00;;;13.70;99.90;;;;;;4889246;29;20052;-63
2022/05/13 07:38:32;;;;;;;0.75;0.35;;;13.80;99.90;;;;;;4906778;29;20047;-63
2022/05/13 07:41:17;;;;;;;0.00;0.00;;;13.90;99.90;;;;;;4889684;29;20083;-63
2022/05/13 07:43:44;;;;;;;0.00;0.00;;;14.10;99.90;;;;;;4890260;29;20060;-63
2022/05/13 07:46:11;;;;;;;0.15;0.15;;;14.20;99.90;;;;;;4906146;29;20131;-63
2022/05/13 07:48:39;;;;;;;0.00;0.00;;;14.20;99.90;;;;;;4906069;29;20048;-63
2022/05/13 07:51:05;;;;;;;0.00;0.00;;;14.30;99.90;;;;;;4906007;29;20403;-62
2022/05/13 07:53:31;;;;;;;0.03;0.03;;;14.30;99.90;;;;;;4904780;29;20115;-63
2022/05/13 07:55:57;;;;;;;0.00;0.00;;;14.20;99.90;;;;;;4889245;29;20095;-63
2022/05/13 07:58:23;;;;;;;0.10;0.10;;;14.30;99.90;;;;;;4905898;29;20407;-63
2022/05/13 08:00:49;;;;;;;0.00;0.00;;;14.40;99.90;;;;;;4887850;29;20135;-64
2022/05/13 08:03:16;;;;;;;0.00;0.00;;;14.80;99.90;;;;;;4872092;29;20056;-63
2022/05/13 08:05:46;;;;;;;0.00;0.00;;;15.20;99.90;;;;;;4905998;29;20051;-63
2022/05/13 08:08:21;;;;;;;0.00;0.00;;;15.40;99.90;;;;;;4905878;29;20082;-63
2022/05/13 08:10:54;;;;;;;0.00;0.00;;;15.90;99.90;;;;;;4905688;29;20047;-62
2022/05/13 08:13:21;;;;;;;0.00;0.00;;;15.90;99.90;;;;;;4906012;29;20087;-63
2022/05/13 08:15:48;;;;;;;0.00;0.00;;;15.80;99.90;;;;;;4905887;29;20050;-63
2022/05/13 08:18:15;;;;;;;1.55;0.20;;;15.60;99.90;;;;;;4906316;29;20051;-63
2022/05/13 08:20:42;;;;;;;0.00;0.00;;;15.40;99.90;;;;;;4905881;29;20040;-65
2022/05/13 08:23:08;;;;;;;0.10;0.10;;;15.40;99.90;;;;;;4906146;29;20052;-63
2022/05/13 08:25:34;;;;;;;0.00;0.00;;;15.30;99.90;;;;;;4904790;29;20052;-63
2022/05/13 08:28:00;;;;;;;0.00;0.00;;;15.10;99.90;;;;;;4899796;29;20048;-63
2022/05/13 08:30:26;;;;;;;0.00;0.00;;;15.50;99.90;;;;;;4905789;29;20370;-62
2022/05/13 08:32:52;;;;;;;0.00;0.00;;;15.60;99.90;;;;;;4905505;29;20075;-63
2022/05/13 08:35:18;;;;;;;0.10;0.10;;;15.30;99.90;;;;;;4904985;29;20407;-62
2022/05/13 08:37:47;;;;;;;0.00;0.00;;;15.10;99.90;;;;;;4905491;29;20506;-63
2022/05/13 08:40:22;;;;;;;0.10;0.10;;;14.90;99.90;;;;;;4889268;29;20392;-64
2022/05/13 08:42:49;;;;;;;0.00;0.00;;;14.80;99.90;;;;;;4905674;29;20059;-64
2022/05/13 08:45:16;;;;;;;0.00;0.00;;;15.00;99.90;;;;;;4904201;29;20040;-65
2022/05/13 08:47:45;;;;;;;0.00;0.00;;;14.90;99.90;;;;;;4906092;29;20519;-63
2022/05/13 08:50:25;;;;;;;0.00;0.00;;;14.90;99.90;;;;;;4904855;29;20052;-63
2022/05/13 08:53:16;;;;;;;0.00;0.00;;;14.80;99.90;;;;;;4904312;29;20373;-64
2022/05/13 08:55:48;;;;;;;0.00;0.00;;;14.90;99.90;;;;;;4906261;29;20092;-66
2022/05/13 08:58:27;;;;;;;0.00;0.00;;;14.90;99.90;;;;;;4905811;29;20055;-65
2022/05/13 09:00:57;;;;;;;0.00;0.00;;;14.50;99.90;;;;;;4905602;29;20175;-67
2022/05/13 09:03:45;;;;;;;0.00;0.00;;;14.20;99.90;;;;;;4905492;29;20056;-66
2022/05/13 09:06:19;;;;;;;0.00;0.00;;;14.10;99.90;;;;;;4893937;29;20055;-68
2022/05/13 09:08:45;;;;;;;0.00;0.00;;;14.00;99.90;;;;;;4909968;29;20056;-68
2022/05/13 09:11:11;;;;;;;0.00;0.00;;;14.20;99.90;;;;;;4909226;29;20091;-68
2022/05/13 09:14:09;;;;;;;0.00;0.00;;;14.40;99.90;;;;;;4908080;29;20131;-68
2022/05/13 09:16:42;;;;;;;0.00;0.00;;;14.50;99.90;;;;;;4881216;29;20044;-68
2022/05/13 09:19:17;;;;;;;0.00;0.00;;;14.60;99.90;;;;;;4909181;29;20951;-68
2022/05/13 09:21:43;;;;;;;0.00;0.00;;;15.00;99.90;;;;;;4908980;29;20040;-69
2022/05/13 09:24:10;;;;;;;0.00;0.00;;;15.10;99.90;;;;;;4908906;29;20444;-68
2022/05/13 09:26:38;;;;;;;0.00;0.00;;;15.40;99.90;;;;;;4904379;29;20955;-67
2022/05/13 09:29:07;;;;;;;0.00;0.00;;;15.40;99.90;;;;;;4907211;29;20052;-68
2022/05/13 09:31:37;;;;;;;0.00;0.00;;;15.30;99.90;;;;;;4893782;29;20111;-68
2022/05/13 09:34:02;;;;;;;0.08;0.08;;;15.20;99.90;;;;;;4893503;29;20404;-67
2022/05/13 09:36:31;;;;;;;0.00;0.00;;;15.10;99.90;;;;;;4907039;29;20055;-70
2022/05/13 09:38:59;;;;;;;0.00;0.00;;;15.10;99.90;;;;;;4908600;29;20048;-58
2022/05/13 09:41:32;;;;;;;0.00;0.00;;;15.50;99.90;;;;;;4908523;29;20677;-69
2022/05/13 09:44:08;;;;;;;0.00;0.00;;;15.70;99.90;;;;;;4907553;29;20040;-68
2022/05/13 09:46:40;;;;;;;0.00;0.00;;;15.80;99.90;;;;;;4907318;29;20131;-71
2022/05/13 09:49:16;;;;;;;0.00;0.00;;;16.00;99.90;;;;;;4908559;29;20578;-67
2022/05/13 09:52:08;;;;;;;0.17;0.10;;;16.00;99.90;;;;;;4908116;29;20069;-68
2022/05/13 09:54:37;;;;;;;0.10;0.10;;;15.90;99.90;;;;;;4878609;29;20052;-68
2022/05/13 09:57:29;;;;;;;0.38;0.38;;;16.30;99.90;;;;;;4890886;29;20048;-68
2022/05/13 10:00:01;;;;;;;0.00;0.00;;;16.40;99.90;;;;;;4908546;29;20194;-66
2022/05/13 10:02:36;;;;;;;0.17;0.17;;;17.00;99.90;;;;;;4896218;29;20072;-69
2022/05/13 10:05:14;;;;;;;0.00;0.00;;;16.20;99.90;;;;;;4907321;29;20411;-67
2022/05/13 10:07:49;;;;;;;0.08;0.08;;;15.80;99.90;;;;;;4908269;29;20348;-68
2022/05/13 10:16:05;;;;;;;0.00;0.00;;;15.40;99.90;;;;;;4906710;29;20135;-69
2022/05/13 10:18:34;;;;;;;0.10;0.10;;;15.30;99.90;;;;;;4907655;29;20679;-69
2022/05/13 10:21:23;;;;;;;0.00;0.00;;;15.20;99.90;;;;;;4889547;29;20096;-69
2022/05/13 10:24:12;;;;;;;0.00;0.00;;;15.30;99.90;;;;;;4890987;29;20048;-66
2022/05/13 10:26:41;;;;;;;0.05;0.05;;;15.30;99.90;;;;;;4907588;29;20187;-65
2022/05/13 10:29:14;;;;;;;0.00;0.00;;;15.20;99.90;;;;;;4907906;29;20227;-65
2022/05/13 10:31:43;;;;;;;0.00;0.00;;;15.20;99.90;;;;;;4907550;29;20115;-66
2022/05/13 10:34:25;;;;;;;0.00;0.00;;;15.10;99.90;;;;;;4891436;29;20676;-64
2022/05/13 10:37:14;;;;;;;0.00;0.00;;;15.20;99.90;;;;;;4890063;29;20048;-63
2022/05/13 10:39:44;;;;;;;0.00;0.00;;;15.70;99.90;;;;;;4907434;29;20411;-63
2022/05/13 10:42:44;;;;;;;0.00;0.00;;;16.30;99.90;;;;;;4892539;29;20040;-63
2022/05/13 10:45:19;;;;;;;0.10;0.10;;;16.20;99.90;;;;;;4901173;29;20052;-64
2022/05/13 10:48:11;;;;;;;0.00;0.00;;;16.30;99.90;;;;;;4907797;29;20476;-63
2022/05/13 10:50:56;;;;;;;0.00;0.00;;;16.30;99.90;;;;;;4902784;29;20050;-62
2022/05/13 10:53:51;;;;;;;0.00;0.00;;;16.70;99.90;;;;;;4890290;29;20432;-63
2022/05/13 10:56:29;;;;;;;0.00;0.00;;;16.60;99.90;;;;;;4907497;29;20309;-62
2022/05/13 10:59:13;;;;;;;0.00;0.00;;;16.50;99.90;;;;;;4906830;29;20060;-63
2022/05/13 11:01:48;;;;;;;0.00;0.00;;;16.40;99.90;;;;;;4907421;29;20111;-62
2022/05/13 11:04:42;;;;;;;0.00;0.00;;;16.60;99.90;;;;;;4906523;29;20056;-62
2022/05/13 11:07:21;;;;;;;0.00;0.00;;;16.60;99.90;;;;;;4907521;29;20060;-62
2022/05/13 11:10:20;;;;;;;0.00;0.00;;;16.60;99.90;;;;;;4906987;29;20403;-62
2022/05/13 11:13:02;;;;;;;0.00;0.00;;;16.80;99.90;;;;;;4907116;29;20123;-63
2022/05/13 11:15:35;;;;;;;0.00;0.00;;;16.60;99.90;;;;;;4906982;29;20044;-62
2022/05/13 11:18:13;;;;;;;0.00;0.00;;;16.60;99.90;;;;;;4907112;29;20566;-62
2022/05/13 11:20:48;;;;;;;0.10;0.10;;;16.60;99.90;;;;;;4906002;29;20044;-61
2022/05/13 11:23:26;;;;;;;0.00;0.00;;;16.30;99.90;;;;;;4907369;29;20180;-62
2022/05/13 11:26:08;;;;;;;0.00;0.00;;;16.20;99.90;;;;;;4907159;29;20045;-58
2022/05/13 11:28:52;;;;;;;0.00;0.00;;;16.30;99.90;;;;;;4906717;29;20048;-74
2022/05/13 11:31:37;;;;;;;0.00;0.00;;;16.70;99.90;;;;;;4906962;29;20066;-64
2022/05/13 11:34:11;;;;;;;0.00;0.00;;;16.70;99.90;;;;;;4906267;29;20059;-63
2022/05/13 11:36:37;;;;;;;0.00;0.00;;;16.70;99.90;;;;;;4906734;29;20098;-64
2022/05/13 11:39:34;;;;;;;0.00;0.00;;;17.00;99.90;;;;;;4906343;29;20110;-62
2022/05/13 11:42:11;;;;;;;0.00;0.00;;;16.60;99.90;;;;;;4906884;29;20086;-63
2022/05/13 11:44:49;;;;;;;0.00;0.00;;;16.50;99.90;;;;;;4905669;29;20055;-63
2022/05/13 11:47:34;;;;;;;0.10;0.10;;;16.60;99.90;;;;;;4913845;29;20063;-64
2022/05/13 11:50:00;;;;;;;0.00;0.00;;;16.60;99.90;;;;;;4888700;29;20088;-64
2022/05/13 11:52:42;;;;;;;0.00;0.00;;;17.00;99.90;;;;;;4888977;29;20134;-64
2022/05/13 11:55:18;;;;;;;0.90;0.10;;;17.10;99.90;;;;;;4906569;29;20123;-64
2022/05/13 11:57:49;;;;;;;0.00;0.00;;;17.10;99.90;;;;;;4906885;29;20056;-63
2022/05/13 12:00:31;;;;;;;0.00;0.00;;;16.80;99.90;;;;;;4907056;29;20579;-64
2022/05/13 12:03:09;;;;;;;0.00;0.00;;;16.80;99.90;;;;;;4888818;29;20052;-63
2022/05/13 12:06:03;;;;;;;0.10;0.10;;;16.70;99.90;;;;;;4905689;29;20052;-64
2022/05/13 12:08:45;;;;;;;0.00;0.00;;;16.60;99.90;;;;;;4905771;29;20562;-63
2022/05/13 12:11:32;;;;;;;0.00;0.00;;;16.60;99.90;;;;;;4889209;29;20112;-66
2022/05/13 12:14:23;;;;;;;0.00;0.00;;;16.60;99.90;;;;;;4906070;29;20044;-63
2022/05/13 12:16:54;;;;;;;0.00;0.00;;;16.60;99.90;;;;;;4906428;29;20043;-63
2022/05/13 12:19:23;;;;;;;0.00;0.00;;;16.50;99.90;;;;;;4887544;29;20055;-68
2022/05/13 12:22:08;;;;;;;0.00;0.00;;;16.40;99.90;;;;;;4905932;29;20130;-68
2022/05/13 12:24:54;;;;;;;0.00;0.00;;;16.50;99.90;;;;;;4905175;29;20415;-68
2022/05/13 12:27:29;;;;;;;0.00;0.00;;;16.60;99.90;;;;;;4888588;29;20048;-67
2022/05/13 12:30:11;;;;;;;0.10;0.10;;;16.60;99.90;;;;;;4905331;29;20107;-68
2022/05/13 12:32:46;;;;;;;0.10;0.10;;;16.50;99.90;;;;;;4905520;29;20048;-68
2022/05/13 12:38:09;;;;;;;0.00;0.00;;;16.30;99.90;;;;;;4906098;29;20048;-67
2022/05/13 12:40:44;;;;;;;0.13;0.10;;;16.30;99.90;;;;;;4909214;29;20047;-67
2022/05/13 12:43:17;;;;;;;0.00;0.00;;;16.50;99.90;;;;;;4909818;29;20044;-67
2022/05/13 12:46:14;;;;;;;0.10;0.10;;;16.70;99.90;;;;;;4909157;29;20059;-68
2022/05/13 12:48:56;;;;;;;0.00;0.00;;;16.60;99.90;;;;;;4899916;29;20135;-68
2022/05/13 12:51:22;;;;;;;0.00;0.00;;;16.70;99.90;;;;;;4909518;29;20055;-67
2022/05/13 12:53:54;;;;;;;0.00;0.00;;;16.90;99.90;;;;;;4909639;29;20875;-67
2022/05/13 12:56:29;;;;;;;0.00;0.00;;;16.90;99.90;;;;;;4908854;29;20056;-67
2022/05/13 12:59:16;;;;;;;;;;;16.80;99.90;;;;;;4909981;29;20048;-68
2022/05/13 13:01:49;;;;;;;0.08;0.08;;;16.80;99.90;;;;;;4908922;29;19970;-68
2022/05/13 13:04:22;;;;;;;0.00;0.00;;;16.80;99.90;;;;;;4906416;29;20139;-67
2022/05/13 13:06:49;;;;;;;0.00;0.00;;;16.90;99.90;;;;;;4905122;29;20116;-67
2022/05/13 13:09:32;;;;;;;0.00;0.00;;;16.80;99.90;;;;;;4905758;29;21728;-68
2022/05/13 13:12:05;;;;;;;0.00;0.00;;;16.80;99.90;;;;;;4905088;29;20044;-68
2022/05/13 13:14:47;;;;;;;0.00;0.00;;;16.80;99.90;;;;;;4904548;29;20044;-68
2022/05/13 13:17:28;;;;;;;0.00;0.00;;;16.90;99.90;;;;;;4889089;29;20099;-67
2022/05/13 13:19:58;;;;;;;0.00;0.00;;;16.70;99.90;;;;;;4904630;29;20042;-68
2022/05/13 13:22:27;;;;;;;0.00;0.00;;;16.80;99.90;;;;;;4904901;29;20044;-67
2022/05/13 13:24:53;;;;;;;0.00;0.00;;;16.80;99.90;;;;;;4905853;29;20036;-67
2022/05/13 13:27:23;;;;;;;0.10;0.10;;;17.00;99.90;;;;;;4904141;29;20062;-67
2022/05/13 13:29:49;;;;;;;0.00;0.00;;;17.00;99.90;;;;;;4904735;29;20135;-67